Saxonburg, PA (16056)

6:29 AM EDT on August 31, 2015 (GMT -0400)
Buffalo Twp. | | Change Station
CLOSE
Current Station
Personal Weather Station
Location: Sarver, PA
Elevation: 1075 ft
Nearby Weather Stations

Elev 1075 ft 40.70 °N, 79.77 °W | Updated 22 seconds ago

Partly Cloudy
Partly Cloudy
63.0 °F
Feels Like 63.0 °F
N
0.0
Wind Variable Wind from SSW

Today
High -- | Low -- °F
--% Chance of Precip.
Yesterday
High -- | Low -- °F
Precip. -- in
6:45 AM 7:53 PM
Waning Gibbous, 96% visible
Pressure 30.11 in
Visibility 7.0 miles
Clouds Clear
Dew Point 62 °F
Humidity 98%
Rainfall 0.00 in
Snow Depth Not available.
UV 0 out of 12
Pollen 9.70 out of 12
Air Quality Not available.
Flu Activity Not available.
METAR KBTP 310955Z AUTO 00000KT 7SM CLR 18/17 A3011 RMK AO1
Pressure 30.11 in
Visibility 7.0 miles
Clouds Clear
Dew Point 62 °F
Humidity 98%
Rainfall 0.00 in
Snow Depth Not available.
UV 0 out of 12
Pollen 9.70 out of 12
Air Quality Not available.
Flu Activity Not available.
METAR KBTP 310955Z AUTO 00000KT 7SM CLR 18/17 A3011 RMK AO1

10-Day Weather Forecast

×

Almanac

Astronomy

Aug. 31, 2015 Rise Set
Actual Time
Civil Twilight
Nautical Twilight
Astronomical Twilight
Moon
Length of Visible Light
Length of Day
Tomorrow will be .
, % of the Moon is Illuminated

Today's Extremes

State Highs State Lows

Community

WunderPhotos

Upload Photos

1,851,229 photos uploaded!

WunderBlogs® & News

Nearby

Air Quality

  Air Quality AQ Index Pollutant
Not available.

Snow Depth

Station Depth Elevation

Earthquake Activity

City Distance Mag. Time & Date
Minimum magnitude displayed is 2.5.

Coastal Water Temperatures

Place Temperature

Stations

Nearby Weather Stations

Station Location Temp. Windchill Dew Point Humidity Wind Precip. Elev Updated Type